Time;durP1;ratioP1;P1;durP2;ratioP2;P2;SDS_P1;SDS_P2;PMS_P1;PMS_P2;Temp;Humidity;BMP_temperature;BMP_pressure;BME280_temperature;BME280_humidity;BME280_pressure;Samples;Min_cycle;Max_cycle;Signal;HPM_P1;HPM_P2
2023/08/12 00:00:11;;;;;;;6.90;5.10;;;21.10;71.80;;;;;;4957140;28;20398;-68
2023/08/12 00:02:44;;;;;;;8.50;5.53;;;21.10;71.90;;;;;;4957544;28;20031;-68
2023/08/12 00:05:10;;;;;;;6.93;5.20;;;21.10;72.00;;;;;;4957547;28;20094;-68
2023/08/12 00:07:36;;;;;;;6.47;5.25;;;21.10;72.10;;;;;;4957233;28;20115;-68
2023/08/12 00:10:04;;;;;;;6.63;5.30;;;21.10;72.00;;;;;;4957127;28;20517;-68
2023/08/12 00:12:32;;;;;;;6.53;5.25;;;21.10;72.00;;;;;;4957180;28;20015;-69
2023/08/12 00:15:02;;;;;;;6.03;5.03;;;21.10;72.00;;;;;;4919015;29;20039;-69
2023/08/12 00:17:31;;;;;;;7.85;5.60;;;21.10;72.10;;;;;;4918999;29;20115;-68
2023/08/12 00:20:00;;;;;;;6.97;4.82;;;21.10;72.00;;;;;;4918754;29;20072;-68
2023/08/12 00:22:28;;;;;;;7.90;5.20;;;21.10;72.00;;;;;;4919446;29;20432;-67
2023/08/12 00:24:59;;;;;;;7.45;5.25;;;21.10;72.10;;;;;;4918807;29;20513;-68
2023/08/12 00:27:27;;;;;;;8.68;5.40;;;21.10;72.00;;;;;;4919388;29;20458;-67
2023/08/12 00:29:56;;;;;;;8.88;5.32;;;21.10;72.10;;;;;;4919291;29;20034;-68
2023/08/12 00:32:22;;;;;;;6.82;5.68;;;21.00;72.20;;;;;;4918854;29;20074;-68
2023/08/12 00:34:48;;;;;;;7.18;5.90;;;21.10;72.20;;;;;;4919377;29;20443;-68
2023/08/12 00:37:15;;;;;;;8.18;5.57;;;21.00;72.10;;;;;;4919095;29;20359;-68
2023/08/12 00:39:41;;;;;;;7.88;5.03;;;21.00;72.30;;;;;;4918996;29;20032;-68
2023/08/12 00:42:07;;;;;;;8.45;6.05;;;21.00;72.30;;;;;;4919313;29;20036;-69
2023/08/12 00:44:35;;;;;;;6.90;5.20;;;21.00;72.40;;;;;;4918998;29;20467;-68
2023/08/12 00:51:54;;;;;;;7.40;5.68;;;20.90;72.40;;;;;;4919456;29;20119;-68
2023/08/12 00:54:21;;;;;;;6.93;5.18;;;20.90;72.60;;;;;;4919162;29;20024;-68
2023/08/12 00:56:50;;;;;;;8.60;5.75;;;20.90;72.70;;;;;;4918766;29;20463;-67
2023/08/12 01:01:42;;;;;;;6.78;5.13;;;20.80;72.80;;;;;;4923039;29;20062;-68
2023/08/12 01:04:08;;;;;;;7.57;5.18;;;20.80;72.70;;;;;;4922450;29;20076;-68
2023/08/12 01:09:01;;;;;;;9.90;6.20;;;20.80;72.90;;;;;;4922585;29;20036;-68
2023/08/12 01:11:39;;;;;;;7.75;5.70;;;20.80;72.90;;;;;;4922822;29;20043;-68
2023/08/12 01:14:25;;;;;;;6.78;5.18;;;20.70;73.10;;;;;;4946710;28;20055;-68
2023/08/12 01:16:58;;;;;;;7.53;6.00;;;20.70;73.20;;;;;;4960480;28;20118;-68
2023/08/12 01:19:37;;;;;;;7.13;5.50;;;20.70;73.20;;;;;;4959030;29;20354;-68
2023/08/12 01:22:09;;;;;;;8.85;5.68;;;20.70;73.20;;;;;;4960388;28;20039;-67
2023/08/12 01:24:41;;;;;;;7.30;5.55;;;20.70;73.00;;;;;;4960573;28;20055;-68
2023/08/12 01:27:09;;;;;;;9.82;7.63;;;20.60;73.10;;;;;;4960259;28;20043;-67
2023/08/12 01:29:38;;;;;;;7.05;5.40;;;20.60;73.20;;;;;;4960145;28;20038;-68
2023/08/12 01:32:32;;;;;;;8.38;5.97;;;20.50;73.30;;;;;;4960217;28;20031;-68
2023/08/12 01:35:09;;;;;;;9.60;6.75;;;20.50;73.60;;;;;;4960460;28;20038;-68
2023/08/12 01:37:39;;;;;;;10.32;6.63;;;20.50;73.40;;;;;;4960391;28;20465;-68
2023/08/12 01:40:10;;;;;;;8.82;6.80;;;20.40;73.50;;;;;;4960163;28;20106;-68
2023/08/12 01:42:38;;;;;;;11.65;7.65;;;20.40;74.00;;;;;;4959694;28;20031;-68
2023/08/12 01:45:07;;;;;;;8.18;5.80;;;20.40;73.90;;;;;;4960210;28;20430;-67
2023/08/12 01:47:33;;;;;;;10.05;6.80;;;20.40;73.80;;;;;;4959638;28;20394;-68
2023/08/12 01:49:59;;;;;;;10.25;6.30;;;20.30;74.10;;;;;;4959780;28;20019;-68
2023/08/12 01:52:25;;;;;;;9.15;6.22;;;20.30;74.50;;;;;;4959519;29;20114;-68
2023/08/12 01:54:52;;;;;;;9.02;6.18;;;20.30;74.30;;;;;;4960013;29;20033;-68
2023/08/12 01:57:18;;;;;;;8.43;6.25;;;20.30;74.40;;;;;;4959463;28;20512;-68
2023/08/12 01:59:46;;;;;;;8.75;6.80;;;20.30;74.40;;;;;;4959509;28;20367;-68
2023/08/12 02:02:14;;;;;;;8.70;6.10;;;20.40;74.40;;;;;;4959358;28;20023;-67
2023/08/12 02:04:42;;;;;;;8.15;6.43;;;20.30;74.40;;;;;;4959754;29;20023;-68
2023/08/12 02:07:09;;;;;;;8.27;6.40;;;20.40;74.40;;;;;;4959219;28;20062;-68
2023/08/12 02:09:37;;;;;;;8.57;6.13;;;20.40;74.50;;;;;;4958598;28;20038;-68
2023/08/12 02:12:04;;;;;;;8.98;6.38;;;20.30;74.40;;;;;;4959145;28;20034;-68
2023/08/12 02:14:36;;;;;;;9.45;6.38;;;20.30;74.40;;;;;;4958016;28;20059;-68
2023/08/12 02:17:05;;;;;;;8.82;6.65;;;20.30;74.30;;;;;;4959027;28;20390;-68
2023/08/12 02:19:34;;;;;;;9.07;6.75;;;20.20;74.30;;;;;;4958857;28;20369;-68
2023/08/12 02:22:03;;;;;;;10.07;6.85;;;20.20;74.50;;;;;;4958126;28;20034;-69
2023/08/12 02:24:29;;;;;;;9.65;6.20;;;20.20;74.60;;;;;;4959207;28;20112;-68
2023/08/12 02:26:55;;;;;;;9.95;6.85;;;20.20;74.70;;;;;;4958897;29;20063;-67
2023/08/12 02:29:21;;;;;;;10.57;8.52;;;20.20;74.80;;;;;;4959205;29;20410;-68
2023/08/12 02:31:49;;;;;;;9.60;6.95;;;20.20;74.60;;;;;;4958842;28;20081;-69
2023/08/12 02:34:15;;;;;;;13.10;7.30;;;20.10;74.50;;;;;;4959251;29;20027;-68
2023/08/12 02:36:41;;;;;;;10.52;6.93;;;20.10;74.50;;;;;;4959177;28;20042;-68
2023/08/12 02:39:07;;;;;;;12.15;9.23;;;20.00;74.50;;;;;;4959101;28;20358;-69
2023/08/12 02:41:35;;;;;;;9.38;6.78;;;20.00;74.60;;;;;;4958884;28;20032;-68
2023/08/12 02:44:01;;;;;;;10.13;6.85;;;19.90;74.80;;;;;;4958599;28;20042;-68
2023/08/12 02:46:28;;;;;;;7.95;6.43;;;19.90;74.90;;;;;;4958514;28;20038;-68
2023/08/12 02:48:54;;;;;;;10.20;7.22;;;19.90;75.00;;;;;;4958516;28;20019;-68
2023/08/12 02:51:20;;;;;;;10.20;6.68;;;19.90;75.50;;;;;;4958342;29;20031;-69
2023/08/12 02:53:46;;;;;;;9.43;6.80;;;19.80;75.40;;;;;;4958902;29;20109;-68
2023/08/12 02:56:12;;;;;;;8.88;6.13;;;19.80;75.50;;;;;;4958846;29;20028;-69
2023/08/12 02:58:38;;;;;;;8.35;6.75;;;19.80;75.40;;;;;;4958572;28;20147;-68
2023/08/12 03:01:04;;;;;;;9.55;6.97;;;19.90;75.30;;;;;;4958067;29;20023;-68
2023/08/12 03:03:31;;;;;;;8.57;6.35;;;19.90;75.50;;;;;;4958714;28;20024;-69
2023/08/12 03:05:59;;;;;;;12.00;7.63;;;19.90;75.40;;;;;;4958173;28;20034;-68
2023/08/12 03:08:25;;;;;;;8.98;6.57;;;20.00;75.30;;;;;;4958105;28;20358;-69
2023/08/12 03:10:59;;;;;;;9.77;7.65;;;20.00;75.30;;;;;;4973194;28;20350;-68
2023/08/12 03:13:25;;;;;;;13.32;8.90;;;20.00;75.30;;;;;;4957741;28;20462;-68
2023/08/12 03:15:54;;;;;;;12.07;9.93;;;20.00;75.30;;;;;;4958251;28;20086;-68
2023/08/12 03:18:23;;;;;;;10.45;7.15;;;19.90;75.30;;;;;;4957889;28;20030;-68
2023/08/12 03:20:49;;;;;;;10.68;7.80;;;19.90;75.40;;;;;;4957752;28;20038;-69
2023/08/12 03:23:15;;;;;;;10.02;7.65;;;19.90;75.50;;;;;;4958199;28;20023;-69
2023/08/12 03:25:41;;;;;;;9.57;8.15;;;19.90;75.70;;;;;;4957885;28;20023;-68
2023/08/12 03:28:08;;;;;;;10.10;7.95;;;19.80;75.80;;;;;;4957810;29;20050;-68
2023/08/12 03:30:34;;;;;;;10.50;8.35;;;19.80;75.80;;;;;;4957922;28;20055;-68
2023/08/12 03:33:04;;;;;;;9.77;7.85;;;19.70;76.00;;;;;;4957741;28;20066;-68
2023/08/12 03:35:31;;;;;;;11.52;7.50;;;19.70;76.10;;;;;;4957662;28;20086;-69
2023/08/12 03:37:56;;;;;;;12.95;7.47;;;19.60;76.20;;;;;;4957896;29;20035;-69
2023/08/12 03:40:22;;;;;;;9.55;7.20;;;19.60;76.00;;;;;;4957705;28;20509;-68
2023/08/12 03:42:49;;;;;;;10.10;7.40;;;19.60;75.90;;;;;;4957857;28;20091;-68
2023/08/12 03:45:15;;;;;;;10.43;7.80;;;19.50;76.10;;;;;;4957511;28;20034;-69
2023/08/12 03:47:41;;;;;;;8.75;7.03;;;19.50;76.10;;;;;;4958035;28;20094;-69
2023/08/12 03:50:07;;;;;;;9.95;7.57;;;19.40;76.00;;;;;;4957521;28;20319;-69
2023/08/12 03:52:33;;;;;;;11.50;8.15;;;19.40;76.10;;;;;;4957431;28;20038;-69
2023/08/12 03:55:04;;;;;;;13.18;9.45;;;19.40;76.00;;;;;;4957591;29;20031;-69
2023/08/12 03:57:31;;;;;;;12.10;8.90;;;19.40;76.10;;;;;;4957363;28;20031;-69
2023/08/12 03:59:59;;;;;;;10.02;7.63;;;19.40;76.30;;;;;;4957102;28;20458;-69
2023/08/12 04:02:25;;;;;;;11.55;8.32;;;19.40;76.30;;;;;;4957212;29;20066;-69
2023/08/12 04:04:51;;;;;;;11.30;8.52;;;19.40;76.30;;;;;;4957278;28;20134;-69
2023/08/12 04:07:19;;;;;;;11.60;8.48;;;19.40;76.40;;;;;;4957286;28;20034;-69
2023/08/12 04:09:46;;;;;;;10.80;7.85;;;19.40;76.30;;;;;;4957039;28;20035;-68
2023/08/12 04:12:12;;;;;;;12.10;8.75;;;19.30;76.40;;;;;;4957672;28;20027;-68
2023/08/12 04:14:38;;;;;;;14.07;10.30;;;19.30;76.30;;;;;;4957026;28;20061;-68
2023/08/12 04:17:04;;;;;;;13.63;10.48;;;19.30;76.40;;;;;;4957389;28;20078;-69
2023/08/12 04:19:34;;;;;;;14.55;10.38;;;19.30;76.60;;;;;;4957016;28;20038;-68
2023/08/12 04:22:00;;;;;;;10.75;8.30;;;19.20;76.60;;;;;;4957116;28;20410;-68
2023/08/12 04:24:26;;;;;;;11.93;9.10;;;19.30;76.70;;;;;;4957603;28;20147;-69
2023/08/12 04:26:54;;;;;;;12.52;8.30;;;19.20;76.70;;;;;;4957589;28;20106;-68
2023/08/12 04:29:20;;;;;;;11.57;8.27;;;19.20;76.80;;;;;;4956872;29;20047;-68
2023/08/12 04:31:46;;;;;;;10.38;7.85;;;19.30;76.90;;;;;;4957100;28;20023;-69
2023/08/12 04:34:16;;;;;;;11.07;8.15;;;19.30;76.90;;;;;;4961000;28;20059;-69
2023/08/12 04:36:48;;;;;;;13.15;8.88;;;19.30;76.80;;;;;;4960914;28;20050;-67
2023/08/12 04:39:14;;;;;;;11.50;9.25;;;19.40;76.70;;;;;;4960761;28;20031;-69
2023/08/12 04:41:44;;;;;;;14.15;8.75;;;19.40;77.00;;;;;;4960775;29;20039;-69
2023/08/12 04:44:12;;;;;;;14.00;9.38;;;19.50;76.50;;;;;;4961292;29;20027;-68
2023/08/12 04:46:38;;;;;;;12.73;8.98;;;19.60;76.70;;;;;;4960740;28;20019;-70
2023/08/12 04:49:05;;;;;;;11.38;8.35;;;19.70;76.40;;;;;;4960907;28;20023;-69
2023/08/12 04:51:35;;;;;;;11.85;7.90;;;19.70;76.40;;;;;;4959995;29;20023;-68
2023/08/12 04:54:02;;;;;;;12.65;8.95;;;19.80;76.20;;;;;;4960513;29;20522;-68
2023/08/12 04:56:32;;;;;;;12.65;8.60;;;19.90;76.30;;;;;;4960485;28;20405;-69
2023/08/12 04:59:00;;;;;;;13.95;8.90;;;20.00;76.00;;;;;;4960930;29;20031;-69
2023/08/12 05:01:25;;;;;;;12.27;8.75;;;20.40;76.30;;;;;;4960349;28;20019;-69
2023/08/12 05:03:51;;;;;;;13.98;9.60;;;21.30;75.50;;;;;;4960976;28;20031;-68
2023/08/12 05:06:20;;;;;;;11.43;8.75;;;22.50;73.50;;;;;;4959398;28;20401;-69
2023/08/12 05:08:47;;;;;;;11.05;8.30;;;23.70;70.50;;;;;;4960249;29;20027;-69
2023/08/12 05:11:13;;;;;;;10.35;8.18;;;24.90;68.10;;;;;;4960150;28;20082;-69
2023/08/12 05:13:40;;;;;;;11.45;7.95;;;25.90;65.20;;;;;;4960024;28;20040;-69
2023/08/12 05:16:09;;;;;;;10.63;8.43;;;26.90;63.30;;;;;;4960410;28;20106;-68
2023/08/12 05:18:35;;;;;;;10.75;7.55;;;27.90;61.20;;;;;;4960642;28;20027;-68
2023/08/12 05:21:03;;;;;;;9.55;7.32;;;28.80;59.10;;;;;;4959972;28;20140;-69
2023/08/12 05:23:29;;;;;;;10.50;7.00;;;29.70;56.80;;;;;;4959979;29;20023;-69
2023/08/12 05:25:55;;;;;;;8.27;7.05;;;30.60;54.30;;;;;;4960502;29;20438;-69
2023/08/12 05:28:21;;;;;;;9.05;6.85;;;31.50;53.20;;;;;;4960476;29;20027;-69
2023/08/12 05:30:48;;;;;;;9.52;7.28;;;32.40;51.70;;;;;;4959865;28;20055;-69
2023/08/12 05:33:14;;;;;;;9.52;7.47;;;33.00;50.00;;;;;;4960135;28;20035;-69
2023/08/12 05:35:40;;;;;;;8.40;6.90;;;33.60;48.30;;;;;;4959809;29;20035;-69
2023/08/12 05:38:06;;;;;;;9.27;6.78;;;34.30;47.10;;;;;;4959806;28;20019;-69
2023/08/12 05:40:32;;;;;;;10.05;6.93;;;34.90;46.30;;;;;;4959908;28;20027;-69
2023/08/12 05:42:58;;;;;;;8.20;6.43;;;35.50;45.20;;;;;;4960109;28;20038;-69
2023/08/12 05:45:24;;;;;;;7.78;6.40;;;36.20;44.00;;;;;;4958726;28;20027;-69
2023/08/12 05:47:50;;;;;;;7.82;6.18;;;36.70;42.90;;;;;;4959651;28;20031;-69
2023/08/12 05:50:16;;;;;;;8.35;6.20;;;37.30;42.00;;;;;;4960049;28;20031;-69
2023/08/12 05:52:43;;;;;;;6.78;5.95;;;37.80;41.20;;;;;;4959787;29;20033;-69
2023/08/12 05:55:09;;;;;;;7.03;5.43;;;38.40;40.20;;;;;;4959743;28;20081;-70
2023/08/12 05:57:35;;;;;;;7.72;5.55;;;38.90;39.20;;;;;;4959434;28;20031;-69
2023/08/12 06:00:02;;;;;;;7.28;5.38;;;39.40;38.60;;;;;;4959363;28;20041;-69
2023/08/12 06:02:28;;;;;;;6.50;5.45;;;39.90;37.90;;;;;;4959381;28;20027;-69
2023/08/12 06:04:54;;;;;;;6.22;5.35;;;40.30;37.10;;;;;;4959289;29;20034;-67
2023/08/12 06:07:20;;;;;;;8.23;5.13;;;40.60;36.40;;;;;;4959281;28;20019;-67
2023/08/12 06:09:46;;;;;;;7.15;4.70;;;40.90;35.80;;;;;;4959121;29;20027;-67
2023/08/12 06:12:12;;;;;;;6.60;4.80;;;41.40;35.20;;;;;;4959160;29;20080;-67
2023/08/12 06:14:39;;;;;;;5.05;4.47;;;41.70;34.80;;;;;;4958983;28;20212;-68
2023/08/12 06:17:07;;;;;;;6.75;5.15;;;42.10;34.20;;;;;;4959353;28;20020;-68
2023/08/12 06:19:33;;;;;;;5.30;4.80;;;42.60;33.70;;;;;;4959343;28;20035;-68
2023/08/12 06:22:00;;;;;;;5.97;4.65;;;43.10;33.10;;;;;;4958945;28;20020;-68
2023/08/12 06:24:26;;;;;;;7.78;5.20;;;43.40;32.60;;;;;;4974066;28;20032;-68
2023/08/12 06:26:52;;;;;;;6.30;5.15;;;43.60;31.90;;;;;;4957951;29;20177;-68
2023/08/12 06:29:18;;;;;;;7.88;5.10;;;43.80;31.40;;;;;;4959237;28;20477;-67
2023/08/12 06:31:44;;;;;;;8.23;5.63;;;44.00;31.50;;;;;;4958762;28;20386;-68
2023/08/12 06:34:10;;;;;;;9.77;5.50;;;44.30;31.10;;;;;;4958705;29;20031;-68
2023/08/12 06:36:36;;;;;;;9.38;5.18;;;44.50;30.70;;;;;;4959133;28;20046;-68
2023/08/12 06:39:02;;;;;;;7.80;4.95;;;44.60;30.90;;;;;;4958527;28;20031;-68
2023/08/12 06:41:28;;;;;;;9.05;5.18;;;44.60;30.10;;;;;;4973700;28;20362;-68
2023/08/12 06:43:53;;;;;;;7.03;4.75;;;44.70;29.70;;;;;;4973659;28;20035;-68
2023/08/12 06:46:19;;;;;;;6.85;5.30;;;44.90;29.80;;;;;;4958528;28;20019;-69
2023/08/12 06:48:45;;;;;;;6.85;4.43;;;45.20;29.70;;;;;;4958482;28;20035;-68
2023/08/12 06:51:11;;;;;;;8.27;4.80;;;45.40;29.40;;;;;;4958305;28;20074;-69
2023/08/12 06:53:39;;;;;;;7.72;5.50;;;45.50;29.20;;;;;;4958590;28;20030;-69
2023/08/12 06:56:05;;;;;;;5.88;4.50;;;45.70;29.10;;;;;;4957991;28;20023;-69
2023/08/12 06:58:31;;;;;;;7.43;5.22;;;45.80;29.00;;;;;;4957317;29;20035;-69
2023/08/12 07:00:59;;;;;;;6.53;4.80;;;45.70;27.90;;;;;;4958231;28;20142;-68
2023/08/12 07:03:25;;;;;;;7.00;5.05;;;45.40;28.00;;;;;;4958444;28;20035;-68
2023/08/12 07:05:53;;;;;;;5.70;4.40;;;45.30;28.40;;;;;;4958136;28;20034;-68
2023/08/12 07:08:23;;;;;;;6.25;4.78;;;45.40;28.20;;;;;;4958081;28;20027;-68
2023/08/12 07:10:49;;;;;;;7.25;6.20;;;45.40;27.90;;;;;;4957980;28;20102;-69
2023/08/12 07:13:15;;;;;;;8.38;5.05;;;45.10;27.80;;;;;;4957779;28;20142;-68
2023/08/12 07:15:41;;;;;;;11.25;6.95;;;44.00;28.40;;;;;;4958239;28;20039;-69
2023/08/12 07:18:07;;;;;;;8.52;6.53;;;42.40;29.50;;;;;;4958180;28;20038;-68
2023/08/12 07:20:33;;;;;;;8.05;6.82;;;40.60;31.50;;;;;;4958264;28;20023;-69
2023/08/12 07:23:01;;;;;;;8.60;5.95;;;39.00;33.30;;;;;;4957910;28;20023;-69
2023/08/12 07:25:27;;;;;;;7.10;5.63;;;37.70;35.10;;;;;;4958324;29;20023;-69
2023/08/12 07:27:55;;;;;;;8.95;6.00;;;36.80;36.60;;;;;;4957767;28;20011;-68
2023/08/12 07:30:21;;;;;;;9.45;6.38;;;35.80;38.00;;;;;;4957594;28;20058;-68
2023/08/12 07:32:47;;;;;;;9.00;6.40;;;35.00;39.20;;;;;;4958180;28;20077;-69
2023/08/12 07:35:37;;;;;;;9.60;6.05;;;34.40;40.30;;;;;;4957594;28;20034;-69
2023/08/12 07:38:03;;;;;;;8.95;6.38;;;33.90;41.10;;;;;;4958151;28;20031;-69
2023/08/12 07:40:29;;;;;;;9.60;5.90;;;33.70;41.90;;;;;;4957406;28;20043;-69
2023/08/12 07:42:55;;;;;;;8.57;5.30;;;33.40;42.40;;;;;;4957495;28;20031;-69
2023/08/12 07:45:22;;;;;;;6.30;4.80;;;33.30;42.70;;;;;;4958006;28;20059;-68
2023/08/12 07:47:49;;;;;;;9.32;5.30;;;33.10;42.90;;;;;;4957675;28;20023;-69
2023/08/12 07:50:16;;;;;;;7.55;5.25;;;33.00;43.20;;;;;;4957329;28;20063;-69
2023/08/12 07:52:43;;;;;;;7.25;4.93;;;32.90;43.70;;;;;;4957337;28;20103;-69
2023/08/12 07:55:09;;;;;;;5.75;4.50;;;32.70;43.70;;;;;;4957307;28;20090;-69
2023/08/12 07:57:35;;;;;;;7.35;4.88;;;32.40;44.00;;;;;;4957513;29;20094;-69
2023/08/12 08:00:01;;;;;;;6.53;5.30;;;32.40;44.30;;;;;;4957397;28;20343;-68
2023/08/12 08:02:26;;;;;;;10.23;7.30;;;32.30;44.50;;;;;;4957183;28;20035;-68
2023/08/12 08:04:53;;;;;;;9.27;6.50;;;32.30;44.50;;;;;;4957183;29;20098;-68
2023/08/12 08:07:18;;;;;;;7.88;5.10;;;32.20;44.90;;;;;;4957023;28;20023;-68
2023/08/12 08:09:45;;;;;;;6.70;5.03;;;32.10;45.20;;;;;;4957095;28;20358;-68
2023/08/12 08:12:11;;;;;;;7.75;5.70;;;32.20;45.00;;;;;;4957364;28;20027;-69
2023/08/12 08:14:37;;;;;;;7.25;5.50;;;32.10;45.10;;;;;;4955811;28;20047;-68
2023/08/12 08:17:03;;;;;;;9.30;6.38;;;32.10;45.10;;;;;;4957491;29;20031;-68
2023/08/12 08:19:30;;;;;;;9.55;5.60;;;32.10;45.20;;;;;;4956882;28;20446;-69
2023/08/12 08:21:56;;;;;;;10.50;6.95;;;32.30;45.10;;;;;;4956982;28;20032;-69
2023/08/12 08:24:22;;;;;;;7.13;5.70;;;32.10;45.00;;;;;;4957204;28;20031;-69
2023/08/12 08:26:49;;;;;;;8.65;5.32;;;31.90;45.80;;;;;;4957162;29;20058;-68
2023/08/12 08:29:15;;;;;;;8.65;4.88;;;31.80;45.90;;;;;;4956861;29;20039;-69
2023/08/12 08:31:41;;;;;;;5.90;4.40;;;31.80;46.10;;;;;;4956268;28;20087;-69
2023/08/12 08:34:10;;;;;;;7.95;4.85;;;31.90;46.10;;;;;;4955901;29;20064;-69
2023/08/12 08:36:36;;;;;;;6.28;5.20;;;32.10;46.10;;;;;;4957601;28;20024;-69
2023/08/12 08:39:05;;;;;;;8.20;6.22;;;32.30;46.10;;;;;;4957073;28;20051;-68
2023/08/12 08:41:37;;;;;;;9.07;6.13;;;32.40;45.70;;;;;;4956765;28;20046;-69
2023/08/12 08:44:08;;;;;;;8.77;6.85;;;32.50;45.40;;;;;;4956561;29;20031;-68
2023/08/12 08:46:34;;;;;;;7.75;6.30;;;32.40;45.40;;;;;;4955877;29;20465;-69
2023/08/12 08:49:02;;;;;;;10.05;6.25;;;32.40;45.50;;;;;;4956736;28;20370;-69
2023/08/12 08:51:35;;;;;;;9.68;6.32;;;32.40;45.80;;;;;;4956683;28;20362;-68
2023/08/12 08:54:04;;;;;;;6.25;4.40;;;32.40;45.60;;;;;;4956723;28;20039;-69
2023/08/12 08:56:34;;;;;;;7.60;6.25;;;32.40;45.80;;;;;;4956698;28;20094;-69
2023/08/12 08:59:01;;;;;;;8.02;5.78;;;32.50;45.40;;;;;;4956897;28;20437;-69
2023/08/12 09:01:28;;;;;;;7.28;5.07;;;32.50;45.90;;;;;;4956650;28;20031;-69
2023/08/12 09:03:56;;;;;;;8.98;5.10;;;32.50;45.70;;;;;;4956629;28;20031;-69
2023/08/12 09:06:25;;;;;;;6.15;4.95;;;32.40;45.70;;;;;;4956606;28;20028;-69
2023/08/12 09:08:54;;;;;;;6.50;4.88;;;32.40;46.00;;;;;;4955658;29;20445;-68
2023/08/12 09:11:40;;;;;;;7.15;5.05;;;32.40;45.80;;;;;;4956549;28;20087;-69
2023/08/12 09:14:11;;;;;;;6.72;5.07;;;32.40;45.50;;;;;;4956404;28;20481;-68
2023/08/12 09:16:37;;;;;;;6.60;5.30;;;32.40;45.40;;;;;;4956520;28;20062;-69
2023/08/12 09:19:04;;;;;;;7.55;5.00;;;32.40;45.50;;;;;;4973560;28;20446;-68
2023/08/12 09:21:31;;;;;;;8.05;4.90;;;32.30;45.90;;;;;;4960308;28;20031;-69
2023/08/12 09:24:04;;;;;;;6.78;4.65;;;32.40;45.80;;;;;;4960010;28;20034;-68
2023/08/12 09:26:31;;;;;;;8.98;5.32;;;32.40;45.60;;;;;;4960255;28;20046;-68
2023/08/12 09:29:00;;;;;;;5.85;4.70;;;32.30;45.80;;;;;;4959912;28;20033;-69
2023/08/12 09:31:30;;;;;;;6.55;4.32;;;32.30;45.90;;;;;;4959681;28;20049;-68
2023/08/12 09:34:03;;;;;;;5.22;4.65;;;32.30;46.00;;;;;;4960008;28;20051;-68
2023/08/12 09:36:30;;;;;;;7.40;5.30;;;32.40;45.90;;;;;;4960015;28;20449;-69
2023/08/12 09:39:03;;;;;;;8.85;6.53;;;32.40;45.50;;;;;;4959692;28;20046;-68
2023/08/12 09:41:29;;;;;;;;;;;32.30;45.60;;;;;;4960026;28;20028;-68
2023/08/12 09:43:57;;;;;;;8.35;4.97;;;32.00;46.00;;;;;;4959623;28;20005;-68
2023/08/12 09:46:27;;;;;;;6.68;4.72;;;31.90;46.40;;;;;;4959526;28;20406;-68
2023/08/12 09:48:53;;;;;;;7.20;4.53;;;31.90;46.60;;;;;;4959480;28;20090;-67
2023/08/12 09:51:23;;;;;;;5.85;4.20;;;32.00;46.70;;;;;;4959331;29;20388;-68
2023/08/12 09:53:51;;;;;;;5.15;4.35;;;32.00;46.60;;;;;;4959368;28;20019;-68
2023/08/12 09:56:23;;;;;;;6.03;3.92;;;32.10;46.70;;;;;;4959300;28;20045;-68
2023/08/12 09:58:50;;;;;;;6.47;4.75;;;32.10;46.60;;;;;;4959645;28;20034;-68
2023/08/12 10:01:20;;;;;;;6.72;4.82;;;32.20;46.40;;;;;;4959135;28;20046;-68
2023/08/12 10:03:50;;;;;;;7.35;5.28;;;32.30;46.30;;;;;;4959204;28;20027;-68
2023/08/12 10:06:19;;;;;;;7.80;5.53;;;32.30;46.10;;;;;;4959398;28;20483;-68
2023/08/12 10:08:49;;;;;;;6.63;4.60;;;32.20;46.00;;;;;;4959616;28;20135;-68
2023/08/12 10:11:16;;;;;;;8.63;4.97;;;32.10;46.20;;;;;;4958959;28;20369;-68
2023/08/12 10:13:44;;;;;;;6.20;4.53;;;32.20;46.20;;;;;;4973983;28;20398;-67
2023/08/12 10:16:12;;;;;;;5.97;4.65;;;32.20;46.30;;;;;;4959406;28;20028;-68
2023/08/12 10:18:40;;;;;;;7.13;5.07;;;32.20;46.00;;;;;;4958818;28;20130;-68
2023/08/12 10:21:11;;;;;;;6.35;4.72;;;32.10;45.70;;;;;;4957763;29;20054;-68
2023/08/12 10:23:38;;;;;;;7.05;4.90;;;32.00;45.90;;;;;;4959313;28;20024;-68
2023/08/12 10:26:06;;;;;;;7.60;4.20;;;32.00;46.00;;;;;;4959316;28;20106;-67
2023/08/12 10:28:36;;;;;;;7.18;4.10;;;32.00;46.40;;;;;;4958148;29;20354;-68
2023/08/12 10:31:06;;;;;;;5.43;4.40;;;32.10;46.50;;;;;;4957908;28;20459;-67
2023/08/12 10:33:39;;;;;;;6.57;4.63;;;32.20;46.70;;;;;;4959114;28;20362;-66
2023/08/12 10:36:05;;;;;;;;;;;32.20;46.30;;;;;;4959298;28;20031;-68
2023/08/12 10:38:32;;;;;;;6.25;4.82;;;32.20;46.10;;;;;;4958813;28;19942;-68
2023/08/12 10:41:27;;;;;;;5.63;4.43;;;32.10;46.00;;;;;;4958937;28;20027;-68
2023/08/12 10:44:03;;;;;;;7.40;4.93;;;32.10;46.00;;;;;;4958747;28;20027;-68
2023/08/12 10:46:36;;;;;;;5.15;4.25;;;32.10;46.00;;;;;;4958764;28;20054;-69
2023/08/12 10:49:08;;;;;;;7.18;5.20;;;32.10;46.60;;;;;;4958621;28;20027;-68
2023/08/12 10:51:54;;;;;;;6.57;4.75;;;32.10;46.70;;;;;;4958941;28;20150;-68
2023/08/12 10:54:30;;;;;;;4.70;4.05;;;32.10;46.40;;;;;;4957348;29;20039;-68
2023/08/12 10:59:51;;;;;;;5.50;4.25;;;32.20;46.60;;;;;;4958526;29;20031;-69
2023/08/12 11:02:27;;;;;;;4.78;4.28;;;32.00;46.40;;;;;;4958034;28;20128;-68
2023/08/12 11:04:56;;;;;;;6.25;4.60;;;32.00;46.10;;;;;;4958599;28;20110;-68
2023/08/12 11:07:39;;;;;;;4.88;4.15;;;31.90;46.40;;;;;;4958056;28;20106;-68
2023/08/12 11:10:12;;;;;;;4.57;4.15;;;31.90;46.50;;;;;;4957886;28;20038;-68
2023/08/12 11:12:39;;;;;;;5.85;4.80;;;31.90;46.70;;;;;;4957674;28;20043;-67
2023/08/12 11:15:17;;;;;;;5.60;4.30;;;31.90;46.40;;;;;;4958180;28;20034;-68
2023/08/12 11:17:46;;;;;;;5.15;4.15;;;31.90;46.60;;;;;;4956894;29;20031;-68
2023/08/12 11:20:18;;;;;;;5.53;4.20;;;31.90;46.40;;;;;;4957672;28;20442;-69
2023/08/12 11:22:46;;;;;;;6.70;4.35;;;31.80;46.60;;;;;;4957755;28;20350;-69
2023/08/12 11:25:15;;;;;;;6.82;4.18;;;31.80;46.60;;;;;;4957732;28;20030;-68
2023/08/12 11:27:48;;;;;;;7.32;4.72;;;31.90;46.60;;;;;;4957924;28;20031;-69
2023/08/12 11:30:18;;;;;;;5.57;4.40;;;32.00;46.60;;;;;;4957739;28;20051;-69
2023/08/12 11:32:49;;;;;;;6.43;4.57;;;32.10;46.20;;;;;;4957638;28;20047;-68
2023/08/12 11:35:18;;;;;;;6.93;4.22;;;32.10;46.10;;;;;;4957550;28;20101;-68
2023/08/12 11:37:57;;;;;;;5.10;4.55;;;32.20;46.00;;;;;;4956565;28;20053;-69
2023/08/12 11:40:27;;;;;;;7.20;4.40;;;32.20;46.10;;;;;;4957612;28;20058;-68
2023/08/12 11:42:56;;;;;;;5.30;4.45;;;32.30;45.70;;;;;;4956504;28;20450;-68
2023/08/12 11:45:26;;;;;;;6.25;4.65;;;32.40;45.80;;;;;;4957881;28;20102;-68
2023/08/12 11:50:23;;;;;;;9.65;5.10;;;32.40;45.20;;;;;;4957697;29;20323;-69
2023/08/12 11:52:53;;;;;;;6.15;4.50;;;32.40;45.30;;;;;;4957349;28;20172;-68
2023/08/12 11:55:22;;;;;;;6.10;5.00;;;32.30;45.50;;;;;;4957763;28;20031;-68
2023/08/12 11:57:50;;;;;;;6.20;4.40;;;32.20;45.60;;;;;;4957212;28;20114;-68
2023/08/12 12:00:18;;;;;;;6.28;4.70;;;32.30;45.70;;;;;;4956985;28;20346;-68
2023/08/12 12:02:52;;;;;;;6.88;4.65;;;32.30;45.40;;;;;;4957471;28;20032;-68
2023/08/12 12:05:23;;;;;;;6.85;4.50;;;32.40;45.40;;;;;;4957422;28;20023;-68
2023/08/12 12:07:51;;;;;;;5.75;4.47;;;32.30;45.50;;;;;;4957432;28;20408;-69
2023/08/12 12:10:21;;;;;;;7.95;4.82;;;32.40;45.30;;;;;;4957321;28;20046;-68
2023/08/12 12:12:54;;;;;;;6.07;4.40;;;32.40;45.30;;;;;;4956399;28;20114;-68
2023/08/12 12:15:22;;;;;;;5.50;4.90;;;32.40;45.30;;;;;;4957627;28;20027;-68
2023/08/12 12:17:50;;;;;;;8.35;4.53;;;32.40;45.40;;;;;;4957284;28;20039;-69
2023/08/12 12:20:16;;;;;;;5.95;4.40;;;32.40;45.40;;;;;;4955863;29;20031;-68
2023/08/12 12:22:47;;;;;;;7.68;4.63;;;32.50;45.40;;;;;;4956980;28;20042;-69
2023/08/12 12:25:16;;;;;;;7.47;5.20;;;32.50;45.30;;;;;;4939983;29;20062;-68
2023/08/12 12:27:46;;;;;;;6.05;4.60;;;32.60;45.10;;;;;;4956921;28;20023;-68
2023/08/12 12:30:16;;;;;;;7.15;4.70;;;32.60;45.10;;;;;;4957643;28;20019;-68
2023/08/12 12:32:43;;;;;;;6.15;4.25;;;32.70;44.80;;;;;;4956875;28;20446;-68
2023/08/12 12:35:10;;;;;;;4.88;4.40;;;32.70;45.10;;;;;;4956849;28;20054;-69
2023/08/12 12:37:38;;;;;;;5.28;4.18;;;32.80;45.40;;;;;;4957115;28;20031;-69
2023/08/12 12:40:07;;;;;;;4.55;4.03;;;32.80;45.40;;;;;;4957193;28;20031;-68
2023/08/12 12:42:38;;;;;;;4.65;4.03;;;32.90;45.40;;;;;;4956835;28;20020;-68
2023/08/12 12:45:04;;;;;;;6.95;4.55;;;32.90;45.40;;;;;;4957345;28;20023;-68
2023/08/12 12:47:37;;;;;;;6.45;5.00;;;33.00;45.10;;;;;;4957077;28;20058;-68
2023/08/12 12:50:05;;;;;;;6.43;4.97;;;32.90;44.60;;;;;;4956683;28;20035;-68
2023/08/12 12:52:30;;;;;;;6.85;4.65;;;32.80;44.60;;;;;;4957238;28;20039;-69
2023/08/12 12:54:57;;;;;;;6.82;4.65;;;32.70;44.70;;;;;;4960216;28;20477;-69
2023/08/12 12:57:23;;;;;;;6.85;5.05;;;32.60;44.90;;;;;;4960509;29;20038;-69
2023/08/12 12:59:51;;;;;;;5.35;4.55;;;32.60;45.10;;;;;;4960334;28;20054;-68
2023/08/12 13:02:19;;;;;;;7.38;4.80;;;32.60;45.20;;;;;;4975469;28;20027;-68
2023/08/12 13:04:50;;;;;;;6.35;4.68;;;32.60;45.20;;;;;;4960870;28;20027;-69